sensor_id;sensor_type;location;lat;lon;timestamp;P1;durP1;ratioP1;P2;durP2;ratioP2
11604;SDS011;5858;43.076;25.626;2022-12-20T00:00:05;22.20;;;10.20;;
11604;SDS011;5858;43.076;25.626;2022-12-20T00:02:33;20.13;;;10.00;;
11604;SDS011;5858;43.076;25.626;2022-12-20T00:05:00;20.40;;;9.60;;
11604;SDS011;5858;43.076;25.626;2022-12-20T00:07:27;17.03;;;9.13;;
11604;SDS011;5858;43.076;25.626;2022-12-20T00:09:54;19.93;;;10.40;;
11604;SDS011;5858;43.076;25.626;2022-12-20T00:12:22;17.37;;;9.40;;
11604;SDS011;5858;43.076;25.626;2022-12-20T00:14:50;19.67;;;10.23;;
11604;SDS011;5858;43.076;25.626;2022-12-20T00:17:17;17.30;;;9.90;;
11604;SDS011;5858;43.076;25.626;2022-12-20T00:19:44;22.20;;;10.17;;
11604;SDS011;5858;43.076;25.626;2022-12-20T00:22:11;18.17;;;9.97;;
11604;SDS011;5858;43.076;25.626;2022-12-20T00:24:38;19.70;;;9.90;;
11604;SDS011;5858;43.076;25.626;2022-12-20T00:27:04;20.77;;;10.73;;
11604;SDS011;5858;43.076;25.626;2022-12-20T00:29:34;22.03;;;11.60;;
11604;SDS011;5858;43.076;25.626;2022-12-20T00:32:01;22.70;;;10.30;;
11604;SDS011;5858;43.076;25.626;2022-12-20T00:34:28;16.90;;;9.93;;
11604;SDS011;5858;43.076;25.626;2022-12-20T00:36:55;17.17;;;9.37;;
11604;SDS011;5858;43.076;25.626;2022-12-20T00:39:22;15.90;;;9.47;;
11604;SDS011;5858;43.076;25.626;2022-12-20T00:41:49;21.37;;;10.47;;
11604;SDS011;5858;43.076;25.626;2022-12-20T00:44:16;21.30;;;10.90;;
11604;SDS011;5858;43.076;25.626;2022-12-20T00:46:44;25.13;;;12.00;;
11604;SDS011;5858;43.076;25.626;2022-12-20T00:49:11;21.77;;;12.07;;
11604;SDS011;5858;43.076;25.626;2022-12-20T00:51:38;24.70;;;13.13;;
11604;SDS011;5858;43.076;25.626;2022-12-20T00:54:05;23.97;;;12.43;;
11604;SDS011;5858;43.076;25.626;2022-12-20T00:56:32;22.17;;;11.23;;
11604;SDS011;5858;43.076;25.626;2022-12-20T00:58:59;23.50;;;12.30;;
11604;SDS011;5858;43.076;25.626;2022-12-20T01:01:27;25.33;;;12.90;;
11604;SDS011;5858;43.076;25.626;2022-12-20T01:03:57;22.37;;;11.83;;
11604;SDS011;5858;43.076;25.626;2022-12-20T01:06:24;22.63;;;12.13;;
11604;SDS011;5858;43.076;25.626;2022-12-20T01:08:52;22.17;;;10.57;;
11604;SDS011;5858;43.076;25.626;2022-12-20T01:11:20;22.57;;;12.20;;
11604;SDS011;5858;43.076;25.626;2022-12-20T01:13:49;20.43;;;11.17;;
11604;SDS011;5858;43.076;25.626;2022-12-20T01:16:18;18.20;;;10.67;;
11604;SDS011;5858;43.076;25.626;2022-12-20T01:18:47;22.40;;;12.13;;
11604;SDS011;5858;43.076;25.626;2022-12-20T01:21:17;23.70;;;11.17;;
11604;SDS011;5858;43.076;25.626;2022-12-20T01:23:46;22.70;;;11.40;;
11604;SDS011;5858;43.076;25.626;2022-12-20T01:26:14;24.57;;;12.37;;
11604;SDS011;5858;43.076;25.626;2022-12-20T01:28:42;23.73;;;11.23;;
11604;SDS011;5858;43.076;25.626;2022-12-20T01:31:14;19.67;;;11.17;;
11604;SDS011;5858;43.076;25.626;2022-12-20T01:33:42;23.57;;;12.20;;
11604;SDS011;5858;43.076;25.626;2022-12-20T01:36:12;20.73;;;11.23;;
11604;SDS011;5858;43.076;25.626;2022-12-20T01:38:42;19.77;;;10.70;;
11604;SDS011;5858;43.076;25.626;2022-12-20T01:41:10;20.63;;;11.80;;
11604;SDS011;5858;43.076;25.626;2022-12-20T01:43:44;21.97;;;12.27;;
11604;SDS011;5858;43.076;25.626;2022-12-20T01:46:13;23.60;;;12.33;;
11604;SDS011;5858;43.076;25.626;2022-12-20T01:48:40;21.43;;;12.27;;
11604;SDS011;5858;43.076;25.626;2022-12-20T01:51:10;22.20;;;11.73;;
11604;SDS011;5858;43.076;25.626;2022-12-20T01:53:37;27.80;;;13.17;;
11604;SDS011;5858;43.076;25.626;2022-12-20T01:56:06;23.97;;;12.67;;
11604;SDS011;5858;43.076;25.626;2022-12-20T01:58:35;23.90;;;11.47;;
11604;SDS011;5858;43.076;25.626;2022-12-20T02:01:05;21.57;;;11.47;;
11604;SDS011;5858;43.076;25.626;2022-12-20T02:03:32;23.23;;;11.43;;
11604;SDS011;5858;43.076;25.626;2022-12-20T02:06:08;25.53;;;12.93;;
11604;SDS011;5858;43.076;25.626;2022-12-20T02:08:40;22.13;;;11.73;;
11604;SDS011;5858;43.076;25.626;2022-12-20T02:11:11;23.63;;;11.53;;
11604;SDS011;5858;43.076;25.626;2022-12-20T02:13:50;25.57;;;12.67;;
11604;SDS011;5858;43.076;25.626;2022-12-20T02:16:27;26.27;;;12.60;;
11604;SDS011;5858;43.076;25.626;2022-12-20T02:19:00;27.07;;;12.20;;
11604;SDS011;5858;43.076;25.626;2022-12-20T02:21:40;24.50;;;12.93;;
11604;SDS011;5858;43.076;25.626;2022-12-20T02:24:26;26.37;;;12.53;;
11604;SDS011;5858;43.076;25.626;2022-12-20T02:27:16;18.00;;;11.30;;
11604;SDS011;5858;43.076;25.626;2022-12-20T02:30:06;24.30;;;12.53;;
11604;SDS011;5858;43.076;25.626;2022-12-20T02:32:36;25.23;;;13.67;;
11604;SDS011;5858;43.076;25.626;2022-12-20T02:35:08;30.47;;;13.90;;
11604;SDS011;5858;43.076;25.626;2022-12-20T02:37:45;27.07;;;13.77;;
11604;SDS011;5858;43.076;25.626;2022-12-20T02:40:13;24.30;;;13.47;;
11604;SDS011;5858;43.076;25.626;2022-12-20T02:42:43;24.07;;;13.83;;
11604;SDS011;5858;43.076;25.626;2022-12-20T02:45:12;30.93;;;15.00;;
11604;SDS011;5858;43.076;25.626;2022-12-20T02:47:45;35.57;;;16.03;;
11604;SDS011;5858;43.076;25.626;2022-12-20T02:50:16;27.70;;;14.37;;
11604;SDS011;5858;43.076;25.626;2022-12-20T02:52:47;23.63;;;13.30;;
11604;SDS011;5858;43.076;25.626;2022-12-20T02:55:16;23.70;;;13.97;;
11604;SDS011;5858;43.076;25.626;2022-12-20T02:57:44;21.07;;;12.20;;
11604;SDS011;5858;43.076;25.626;2022-12-20T03:00:19;19.70;;;12.13;;
11604;SDS011;5858;43.076;25.626;2022-12-20T03:02:48;23.43;;;13.43;;
11604;SDS011;5858;43.076;25.626;2022-12-20T03:05:34;25.57;;;12.23;;
11604;SDS011;5858;43.076;25.626;2022-12-20T03:08:09;27.17;;;13.20;;
11604;SDS011;5858;43.076;25.626;2022-12-20T03:10:36;23.17;;;13.47;;
11604;SDS011;5858;43.076;25.626;2022-12-20T03:13:03;25.27;;;13.50;;
11604;SDS011;5858;43.076;25.626;2022-12-20T03:15:32;22.00;;;13.10;;
11604;SDS011;5858;43.076;25.626;2022-12-20T03:17:59;25.53;;;12.77;;
11604;SDS011;5858;43.076;25.626;2022-12-20T03:20:26;25.23;;;13.60;;
11604;SDS011;5858;43.076;25.626;2022-12-20T03:22:53;25.70;;;12.60;;
11604;SDS011;5858;43.076;25.626;2022-12-20T03:25:20;21.07;;;11.97;;
11604;SDS011;5858;43.076;25.626;2022-12-20T03:27:47;26.67;;;11.70;;
11604;SDS011;5858;43.076;25.626;2022-12-20T03:30:14;24.07;;;12.63;;
11604;SDS011;5858;43.076;25.626;2022-12-20T03:32:42;22.50;;;12.03;;
11604;SDS011;5858;43.076;25.626;2022-12-20T03:35:09;25.30;;;12.60;;
11604;SDS011;5858;43.076;25.626;2022-12-20T03:37:37;22.47;;;12.03;;
11604;SDS011;5858;43.076;25.626;2022-12-20T03:40:04;23.03;;;13.73;;
11604;SDS011;5858;43.076;25.626;2022-12-20T03:42:32;26.23;;;13.80;;
11604;SDS011;5858;43.076;25.626;2022-12-20T03:44:59;24.03;;;12.43;;
11604;SDS011;5858;43.076;25.626;2022-12-20T03:47:26;25.17;;;13.83;;
11604;SDS011;5858;43.076;25.626;2022-12-20T03:49:54;23.47;;;13.27;;
11604;SDS011;5858;43.076;25.626;2022-12-20T03:52:21;29.47;;;13.87;;
11604;SDS011;5858;43.076;25.626;2022-12-20T03:54:48;26.87;;;14.87;;
11604;SDS011;5858;43.076;25.626;2022-12-20T03:57:15;23.07;;;12.73;;
11604;SDS011;5858;43.076;25.626;2022-12-20T03:59:42;29.97;;;14.80;;
11604;SDS011;5858;43.076;25.626;2022-12-20T04:02:10;25.33;;;14.23;;
11604;SDS011;5858;43.076;25.626;2022-12-20T04:04:37;30.57;;;15.33;;
11604;SDS011;5858;43.076;25.626;2022-12-20T04:07:06;31.93;;;14.97;;
11604;SDS011;5858;43.076;25.626;2022-12-20T04:09:33;24.53;;;14.27;;
11604;SDS011;5858;43.076;25.626;2022-12-20T04:12:00;28.67;;;14.70;;
11604;SDS011;5858;43.076;25.626;2022-12-20T04:14:27;30.17;;;15.20;;
11604;SDS011;5858;43.076;25.626;2022-12-20T04:16:54;33.23;;;14.30;;
11604;SDS011;5858;43.076;25.626;2022-12-20T04:19:21;28.00;;;14.90;;
11604;SDS011;5858;43.076;25.626;2022-12-20T04:21:48;33.23;;;15.87;;
11604;SDS011;5858;43.076;25.626;2022-12-20T04:24:17;31.17;;;14.47;;
11604;SDS011;5858;43.076;25.626;2022-12-20T04:26:44;28.30;;;16.03;;
11604;SDS011;5858;43.076;25.626;2022-12-20T04:29:10;35.50;;;16.33;;
11604;SDS011;5858;43.076;25.626;2022-12-20T04:31:38;25.83;;;13.57;;
11604;SDS011;5858;43.076;25.626;2022-12-20T04:34:05;22.30;;;12.07;;
11604;SDS011;5858;43.076;25.626;2022-12-20T04:36:32;21.13;;;11.43;;
11604;SDS011;5858;43.076;25.626;2022-12-20T04:38:59;26.40;;;12.47;;
11604;SDS011;5858;43.076;25.626;2022-12-20T04:41:27;24.40;;;12.27;;
11604;SDS011;5858;43.076;25.626;2022-12-20T04:43:55;21.33;;;11.77;;
11604;SDS011;5858;43.076;25.626;2022-12-20T04:46:23;26.57;;;11.83;;
11604;SDS011;5858;43.076;25.626;2022-12-20T04:48:52;21.73;;;11.57;;
11604;SDS011;5858;43.076;25.626;2022-12-20T04:51:19;19.40;;;11.03;;
11604;SDS011;5858;43.076;25.626;2022-12-20T04:53:49;21.77;;;12.53;;
11604;SDS011;5858;43.076;25.626;2022-12-20T04:56:16;20.27;;;10.90;;
11604;SDS011;5858;43.076;25.626;2022-12-20T04:58:47;30.33;;;12.00;;
11604;SDS011;5858;43.076;25.626;2022-12-20T05:01:15;23.50;;;12.67;;
11604;SDS011;5858;43.076;25.626;2022-12-20T05:03:43;22.47;;;12.03;;
11604;SDS011;5858;43.076;25.626;2022-12-20T05:06:10;26.10;;;14.23;;
11604;SDS011;5858;43.076;25.626;2022-12-20T05:08:38;29.13;;;12.77;;
11604;SDS011;5858;43.076;25.626;2022-12-20T05:11:05;27.77;;;14.00;;
11604;SDS011;5858;43.076;25.626;2022-12-20T05:13:33;23.93;;;14.10;;
11604;SDS011;5858;43.076;25.626;2022-12-20T05:16:02;29.77;;;14.53;;
11604;SDS011;5858;43.076;25.626;2022-12-20T05:18:29;26.90;;;13.83;;
11604;SDS011;5858;43.076;25.626;2022-12-20T05:20:57;30.03;;;15.60;;
11604;SDS011;5858;43.076;25.626;2022-12-20T05:23:43;31.37;;;16.97;;
11604;SDS011;5858;43.076;25.626;2022-12-20T05:26:29;35.17;;;18.17;;
11604;SDS011;5858;43.076;25.626;2022-12-20T05:28:58;32.57;;;16.87;;
11604;SDS011;5858;43.076;25.626;2022-12-20T05:31:27;37.00;;;18.07;;
11604;SDS011;5858;43.076;25.626;2022-12-20T05:33:54;39.77;;;18.40;;
11604;SDS011;5858;43.076;25.626;2022-12-20T05:36:21;33.63;;;16.53;;
11604;SDS011;5858;43.076;25.626;2022-12-20T05:38:48;31.40;;;16.57;;
11604;SDS011;5858;43.076;25.626;2022-12-20T05:41:15;35.87;;;16.40;;
11604;SDS011;5858;43.076;25.626;2022-12-20T05:43:43;39.70;;;18.03;;
11604;SDS011;5858;43.076;25.626;2022-12-20T05:46:10;36.37;;;17.13;;
11604;SDS011;5858;43.076;25.626;2022-12-20T05:48:38;39.57;;;18.63;;
11604;SDS011;5858;43.076;25.626;2022-12-20T05:51:06;42.27;;;19.13;;
11604;SDS011;5858;43.076;25.626;2022-12-20T05:53:33;35.57;;;18.87;;
11604;SDS011;5858;43.076;25.626;2022-12-20T05:56:00;34.60;;;18.63;;
11604;SDS011;5858;43.076;25.626;2022-12-20T05:58:28;34.00;;;19.23;;
11604;SDS011;5858;43.076;25.626;2022-12-20T06:00:55;30.53;;;17.50;;
11604;SDS011;5858;43.076;25.626;2022-12-20T06:03:22;35.47;;;18.27;;
11604;SDS011;5858;43.076;25.626;2022-12-20T06:05:51;38.17;;;17.10;;
11604;SDS011;5858;43.076;25.626;2022-12-20T06:08:18;43.23;;;19.10;;
11604;SDS011;5858;43.076;25.626;2022-12-20T06:10:47;32.20;;;18.07;;
11604;SDS011;5858;43.076;25.626;2022-12-20T06:13:18;35.63;;;18.63;;
11604;SDS011;5858;43.076;25.626;2022-12-20T06:15:45;38.20;;;18.77;;
11604;SDS011;5858;43.076;25.626;2022-12-20T06:18:12;35.70;;;19.07;;
11604;SDS011;5858;43.076;25.626;2022-12-20T06:20:39;37.97;;;20.37;;
11604;SDS011;5858;43.076;25.626;2022-12-20T06:23:08;44.70;;;20.93;;
11604;SDS011;5858;43.076;25.626;2022-12-20T06:25:35;39.13;;;20.43;;
11604;SDS011;5858;43.076;25.626;2022-12-20T06:28:11;40.83;;;19.20;;
11604;SDS011;5858;43.076;25.626;2022-12-20T06:30:40;36.60;;;19.53;;
11604;SDS011;5858;43.076;25.626;2022-12-20T06:33:07;33.00;;;18.83;;
11604;SDS011;5858;43.076;25.626;2022-12-20T06:35:34;37.30;;;16.93;;
11604;SDS011;5858;43.076;25.626;2022-12-20T06:38:02;38.40;;;19.27;;
11604;SDS011;5858;43.076;25.626;2022-12-20T06:40:30;42.23;;;20.93;;
11604;SDS011;5858;43.076;25.626;2022-12-20T06:42:57;40.77;;;21.50;;
11604;SDS011;5858;43.076;25.626;2022-12-20T06:45:24;44.47;;;20.67;;
11604;SDS011;5858;43.076;25.626;2022-12-20T06:47:51;48.50;;;20.90;;
11604;SDS011;5858;43.076;25.626;2022-12-20T06:50:18;39.80;;;21.93;;
11604;SDS011;5858;43.076;25.626;2022-12-20T06:52:48;44.83;;;21.17;;
11604;SDS011;5858;43.076;25.626;2022-12-20T06:55:18;36.43;;;18.57;;
11604;SDS011;5858;43.076;25.626;2022-12-20T06:57:46;35.27;;;17.60;;
11604;SDS011;5858;43.076;25.626;2022-12-20T07:00:14;33.50;;;16.70;;
11604;SDS011;5858;43.076;25.626;2022-12-20T07:02:42;33.20;;;16.43;;
11604;SDS011;5858;43.076;25.626;2022-12-20T07:05:10;33.10;;;16.27;;
11604;SDS011;5858;43.076;25.626;2022-12-20T07:07:37;25.60;;;13.97;;
11604;SDS011;5858;43.076;25.626;2022-12-20T07:10:04;30.47;;;15.90;;
11604;SDS011;5858;43.076;25.626;2022-12-20T07:12:32;30.17;;;16.07;;
11604;SDS011;5858;43.076;25.626;2022-12-20T07:15:01;32.97;;;17.43;;
11604;SDS011;5858;43.076;25.626;2022-12-20T07:17:27;36.63;;;20.33;;
11604;SDS011;5858;43.076;25.626;2022-12-20T07:19:54;45.43;;;21.17;;
11604;SDS011;5858;43.076;25.626;2022-12-20T07:22:21;49.23;;;22.53;;
11604;SDS011;5858;43.076;25.626;2022-12-20T07:24:48;41.03;;;23.30;;
11604;SDS011;5858;43.076;25.626;2022-12-20T07:27:15;49.13;;;25.23;;
11604;SDS011;5858;43.076;25.626;2022-12-20T07:29:42;55.13;;;28.03;;
11604;SDS011;5858;43.076;25.626;2022-12-20T07:32:11;65.60;;;27.93;;
11604;SDS011;5858;43.076;25.626;2022-12-20T07:34:38;55.87;;;26.63;;
11604;SDS011;5858;43.076;25.626;2022-12-20T07:37:05;45.10;;;23.93;;
11604;SDS011;5858;43.076;25.626;2022-12-20T07:39:33;46.17;;;23.77;;
11604;SDS011;5858;43.076;25.626;2022-12-20T07:42:00;50.43;;;25.10;;
11604;SDS011;5858;43.076;25.626;2022-12-20T07:44:27;44.70;;;22.83;;
11604;SDS011;5858;43.076;25.626;2022-12-20T07:46:54;80.53;;;32.43;;
11604;SDS011;5858;43.076;25.626;2022-12-20T07:49:23;73.50;;;32.63;;
11604;SDS011;5858;43.076;25.626;2022-12-20T07:51:50;68.53;;;30.40;;
11604;SDS011;5858;43.076;25.626;2022-12-20T07:54:23;52.33;;;24.43;;
11604;SDS011;5858;43.076;25.626;2022-12-20T07:56:53;49.87;;;21.00;;
11604;SDS011;5858;43.076;25.626;2022-12-20T07:59:25;41.70;;;21.23;;
11604;SDS011;5858;43.076;25.626;2022-12-20T08:01:56;49.07;;;24.53;;
11604;SDS011;5858;43.076;25.626;2022-12-20T08:04:24;44.07;;;21.17;;
11604;SDS011;5858;43.076;25.626;2022-12-20T08:06:53;48.70;;;20.20;;
11604;SDS011;5858;43.076;25.626;2022-12-20T08:09:23;33.90;;;16.10;;
11604;SDS011;5858;43.076;25.626;2022-12-20T08:11:51;35.43;;;18.30;;
11604;SDS011;5858;43.076;25.626;2022-12-20T08:14:19;31.13;;;17.67;;
11604;SDS011;5858;43.076;25.626;2022-12-20T08:16:47;37.53;;;17.03;;
11604;SDS011;5858;43.076;25.626;2022-12-20T08:19:15;38.30;;;21.70;;
11604;SDS011;5858;43.076;25.626;2022-12-20T08:21:43;38.70;;;21.00;;
11604;SDS011;5858;43.076;25.626;2022-12-20T08:24:10;44.30;;;25.37;;
11604;SDS011;5858;43.076;25.626;2022-12-20T08:26:38;33.67;;;20.10;;
11604;SDS011;5858;43.076;25.626;2022-12-20T08:29:05;37.37;;;18.90;;
11604;SDS011;5858;43.076;25.626;2022-12-20T08:31:36;38.20;;;20.20;;
11604;SDS011;5858;43.076;25.626;2022-12-20T08:34:03;40.57;;;22.53;;
11604;SDS011;5858;43.076;25.626;2022-12-20T08:36:30;40.77;;;23.20;;
11604;SDS011;5858;43.076;25.626;2022-12-20T08:39:00;42.17;;;25.17;;
11604;SDS011;5858;43.076;25.626;2022-12-20T08:41:29;43.30;;;26.40;;
11604;SDS011;5858;43.076;25.626;2022-12-20T08:43:57;42.23;;;25.60;;
11604;SDS011;5858;43.076;25.626;2022-12-20T08:46:24;36.53;;;23.47;;
11604;SDS011;5858;43.076;25.626;2022-12-20T08:48:51;36.83;;;22.53;;
11604;SDS011;5858;43.076;25.626;2022-12-20T08:51:19;40.07;;;22.23;;
11604;SDS011;5858;43.076;25.626;2022-12-20T08:53:46;37.57;;;21.87;;
11604;SDS011;5858;43.076;25.626;2022-12-20T08:56:15;43.10;;;21.17;;
11604;SDS011;5858;43.076;25.626;2022-12-20T08:58:44;26.80;;;17.83;;
11604;SDS011;5858;43.076;25.626;2022-12-20T09:01:13;33.90;;;17.23;;
11604;SDS011;5858;43.076;25.626;2022-12-20T09:03:46;28.83;;;16.67;;
11604;SDS011;5858;43.076;25.626;2022-12-20T09:06:14;34.70;;;18.40;;
11604;SDS011;5858;43.076;25.626;2022-12-20T09:08:43;33.20;;;17.53;;
11604;SDS011;5858;43.076;25.626;2022-12-20T09:11:10;39.67;;;22.90;;
11604;SDS011;5858;43.076;25.626;2022-12-20T09:13:41;36.37;;;19.70;;
11604;SDS011;5858;43.076;25.626;2022-12-20T09:16:10;34.70;;;17.70;;
11604;SDS011;5858;43.076;25.626;2022-12-20T09:18:38;38.23;;;19.63;;
11604;SDS011;5858;43.076;25.626;2022-12-20T09:21:05;36.87;;;22.03;;
11604;SDS011;5858;43.076;25.626;2022-12-20T09:23:34;39.67;;;21.93;;
11604;SDS011;5858;43.076;25.626;2022-12-20T09:26:03;39.23;;;22.37;;
11604;SDS011;5858;43.076;25.626;2022-12-20T09:28:31;38.07;;;20.63;;
11604;SDS011;5858;43.076;25.626;2022-12-20T09:31:00;35.00;;;20.20;;
11604;SDS011;5858;43.076;25.626;2022-12-20T09:33:29;38.13;;;20.73;;
11604;SDS011;5858;43.076;25.626;2022-12-20T09:35:57;41.07;;;20.37;;
11604;SDS011;5858;43.076;25.626;2022-12-20T09:38:26;37.43;;;19.20;;
11604;SDS011;5858;43.076;25.626;2022-12-20T09:40:56;35.23;;;18.60;;
11604;SDS011;5858;43.076;25.626;2022-12-20T09:43:26;34.17;;;17.07;;
11604;SDS011;5858;43.076;25.626;2022-12-20T09:45:57;31.87;;;19.70;;
11604;SDS011;5858;43.076;25.626;2022-12-20T09:48:33;37.37;;;21.17;;
11604;SDS011;5858;43.076;25.626;2022-12-20T09:51:06;38.57;;;19.03;;
11604;SDS011;5858;43.076;25.626;2022-12-20T09:53:42;30.73;;;18.50;;
11604;SDS011;5858;43.076;25.626;2022-12-20T09:56:18;28.00;;;17.00;;
11604;SDS011;5858;43.076;25.626;2022-12-20T09:58:59;27.07;;;16.33;;
11604;SDS011;5858;43.076;25.626;2022-12-20T10:01:31;27.03;;;14.57;;
11604;SDS011;5858;43.076;25.626;2022-12-20T10:04:02;29.73;;;15.27;;
11604;SDS011;5858;43.076;25.626;2022-12-20T10:06:38;28.40;;;15.00;;
11604;SDS011;5858;43.076;25.626;2022-12-20T10:09:26;26.23;;;13.17;;
11604;SDS011;5858;43.076;25.626;2022-12-20T10:12:08;27.07;;;14.93;;
11604;SDS011;5858;43.076;25.626;2022-12-20T10:14:51;37.13;;;14.60;;
11604;SDS011;5858;43.076;25.626;2022-12-20T10:17:32;25.83;;;14.53;;
11604;SDS011;5858;43.076;25.626;2022-12-20T10:20:17;22.57;;;12.60;;
11604;SDS011;5858;43.076;25.626;2022-12-20T10:22:55;23.87;;;13.73;;
11604;SDS011;5858;43.076;25.626;2022-12-20T10:25:28;24.73;;;14.00;;
11604;SDS011;5858;43.076;25.626;2022-12-20T10:27:59;22.67;;;11.10;;
11604;SDS011;5858;43.076;25.626;2022-12-20T10:30:31;19.10;;;10.50;;
11604;SDS011;5858;43.076;25.626;2022-12-20T10:33:01;22.17;;;11.97;;
11604;SDS011;5858;43.076;25.626;2022-12-20T10:35:32;20.90;;;12.83;;
11604;SDS011;5858;43.076;25.626;2022-12-20T10:38:04;20.47;;;11.70;;
11604;SDS011;5858;43.076;25.626;2022-12-20T10:40:42;20.73;;;11.20;;
11604;SDS011;5858;43.076;25.626;2022-12-20T10:43:13;16.67;;;9.77;;
11604;SDS011;5858;43.076;25.626;2022-12-20T10:45:54;20.23;;;10.67;;
11604;SDS011;5858;43.076;25.626;2022-12-20T10:48:29;23.43;;;13.40;;
11604;SDS011;5858;43.076;25.626;2022-12-20T10:51:12;29.83;;;16.63;;
11604;SDS011;5858;43.076;25.626;2022-12-20T10:53:49;28.33;;;17.07;;
11604;SDS011;5858;43.076;25.626;2022-12-20T10:56:29;37.37;;;18.77;;
11604;SDS011;5858;43.076;25.626;2022-12-20T11:09:52;25.77;;;14.93;;
11604;SDS011;5858;43.076;25.626;2022-12-20T11:12:51;21.17;;;12.47;;
11604;SDS011;5858;43.076;25.626;2022-12-20T11:15:20;22.13;;;13.20;;
11604;SDS011;5858;43.076;25.626;2022-12-20T11:17:58;23.33;;;13.07;;
11604;SDS011;5858;43.076;25.626;2022-12-20T11:20:59;21.10;;;12.67;;
11604;SDS011;5858;43.076;25.626;2022-12-20T11:23:49;29.07;;;14.63;;
11604;SDS011;5858;43.076;25.626;2022-12-20T11:26:29;20.60;;;12.90;;
11604;SDS011;5858;43.076;25.626;2022-12-20T11:29:16;21.30;;;12.70;;
11604;SDS011;5858;43.076;25.626;2022-12-20T11:31:55;20.60;;;11.47;;
11604;SDS011;5858;43.076;25.626;2022-12-20T11:34:36;20.80;;;11.17;;
11604;SDS011;5858;43.076;25.626;2022-12-20T11:37:16;19.70;;;10.73;;
11604;SDS011;5858;43.076;25.626;2022-12-20T11:40:15;18.77;;;9.90;;
11604;SDS011;5858;43.076;25.626;2022-12-20T11:46:17;15.63;;;9.23;;
11604;SDS011;5858;43.076;25.626;2022-12-20T11:53:47;13.47;;;7.43;;
11604;SDS011;5858;43.076;25.626;2022-12-20T11:58:59;16.20;;;9.27;;
11604;SDS011;5858;43.076;25.626;2022-12-20T12:01:51;14.50;;;7.83;;
11604;SDS011;5858;43.076;25.626;2022-12-20T12:04:24;14.17;;;8.37;;
11604;SDS011;5858;43.076;25.626;2022-12-20T12:06:57;15.87;;;8.43;;
11604;SDS011;5858;43.076;25.626;2022-12-20T12:09:31;17.47;;;8.90;;
11604;SDS011;5858;43.076;25.626;2022-12-20T12:12:05;17.20;;;8.13;;
11604;SDS011;5858;43.076;25.626;2022-12-20T12:14:45;21.70;;;11.70;;
11604;SDS011;5858;43.076;25.626;2022-12-20T12:17:31;21.67;;;11.20;;
11604;SDS011;5858;43.076;25.626;2022-12-20T12:20:27;17.17;;;10.27;;
11604;SDS011;5858;43.076;25.626;2022-12-20T12:23:09;21.40;;;10.43;;
11604;SDS011;5858;43.076;25.626;2022-12-20T12:25:41;19.53;;;10.70;;
11604;SDS011;5858;43.076;25.626;2022-12-20T12:28:15;24.87;;;12.23;;
11604;SDS011;5858;43.076;25.626;2022-12-20T12:30:51;21.53;;;11.27;;
11604;SDS011;5858;43.076;25.626;2022-12-20T12:33:23;28.77;;;14.17;;
11604;SDS011;5858;43.076;25.626;2022-12-20T12:36:00;19.63;;;11.17;;
11604;SDS011;5858;43.076;25.626;2022-12-20T12:38:50;22.70;;;12.37;;
11604;SDS011;5858;43.076;25.626;2022-12-20T12:41:58;21.40;;;12.00;;
11604;SDS011;5858;43.076;25.626;2022-12-20T12:44:49;25.70;;;13.83;;
11604;SDS011;5858;43.076;25.626;2022-12-20T12:47:21;23.10;;;12.47;;
11604;SDS011;5858;43.076;25.626;2022-12-20T12:50:03;23.63;;;13.33;;
11604;SDS011;5858;43.076;25.626;2022-12-20T12:52:42;25.37;;;13.77;;
11604;SDS011;5858;43.076;25.626;2022-12-20T12:55:37;22.23;;;12.43;;
11604;SDS011;5858;43.076;25.626;2022-12-20T13:01:11;23.87;;;12.73;;
11604;SDS011;5858;43.076;25.626;2022-12-20T13:03:45;24.47;;;13.10;;
11604;SDS011;5858;43.076;25.626;2022-12-20T13:06:42;28.53;;;13.63;;
11604;SDS011;5858;43.076;25.626;2022-12-20T13:09:36;22.80;;;13.67;;
11604;SDS011;5858;43.076;25.626;2022-12-20T13:18:37;21.53;;;12.50;;
11604;SDS011;5858;43.076;25.626;2022-12-20T13:21:40;28.40;;;14.33;;
11604;SDS011;5858;43.076;25.626;2022-12-20T13:24:54;25.43;;;14.57;;
11604;SDS011;5858;43.076;25.626;2022-12-20T13:31:29;21.47;;;14.50;;
11604;SDS011;5858;43.076;25.626;2022-12-20T13:34:22;24.57;;;13.27;;
11604;SDS011;5858;43.076;25.626;2022-12-20T13:37:49;27.13;;;13.80;;
11604;SDS011;5858;43.076;25.626;2022-12-20T13:41:08;23.50;;;12.33;;
11604;SDS011;5858;43.076;25.626;2022-12-20T13:43:27;27.63;;;13.83;;
11604;SDS011;5858;43.076;25.626;2022-12-20T13:46:03;33.90;;;15.80;;
11604;SDS011;5858;43.076;25.626;2022-12-20T13:49:07;20.97;;;12.50;;
11604;SDS011;5858;43.076;25.626;2022-12-20T13:51:43;26.37;;;14.03;;
11604;SDS011;5858;43.076;25.626;2022-12-20T13:54:23;25.63;;;13.43;;
11604;SDS011;5858;43.076;25.626;2022-12-20T13:56:51;25.97;;;14.00;;
11604;SDS011;5858;43.076;25.626;2022-12-20T13:59:19;24.87;;;14.03;;
11604;SDS011;5858;43.076;25.626;2022-12-20T14:01:51;26.43;;;14.57;;
11604;SDS011;5858;43.076;25.626;2022-12-20T14:07:27;35.07;;;17.13;;
11604;SDS011;5858;43.076;25.626;2022-12-20T14:09:59;37.43;;;19.20;;
11604;SDS011;5858;43.076;25.626;2022-12-20T14:12:28;26.93;;;14.87;;
11604;SDS011;5858;43.076;25.626;2022-12-20T14:14:56;28.97;;;15.80;;
11604;SDS011;5858;43.076;25.626;2022-12-20T14:17:32;26.83;;;16.00;;
11604;SDS011;5858;43.076;25.626;2022-12-20T14:20:11;30.73;;;16.13;;
11604;SDS011;5858;43.076;25.626;2022-12-20T14:22:43;26.13;;;15.87;;
11604;SDS011;5858;43.076;25.626;2022-12-20T14:25:26;32.47;;;18.23;;
11604;SDS011;5858;43.076;25.626;2022-12-20T14:27:56;36.37;;;19.17;;
11604;SDS011;5858;43.076;25.626;2022-12-20T14:30:25;36.03;;;18.43;;
11604;SDS011;5858;43.076;25.626;2022-12-20T14:32:56;28.43;;;17.17;;
11604;SDS011;5858;43.076;25.626;2022-12-20T14:35:24;31.87;;;16.63;;
11604;SDS011;5858;43.076;25.626;2022-12-20T14:37:56;26.90;;;16.10;;
11604;SDS011;5858;43.076;25.626;2022-12-20T14:40:39;37.50;;;17.57;;
11604;SDS011;5858;43.076;25.626;2022-12-20T14:43:13;30.13;;;17.00;;
11604;SDS011;5858;43.076;25.626;2022-12-20T14:45:40;33.83;;;20.40;;
11604;SDS011;5858;43.076;25.626;2022-12-20T14:48:12;36.60;;;18.57;;
11604;SDS011;5858;43.076;25.626;2022-12-20T14:50:49;34.50;;;18.67;;
11604;SDS011;5858;43.076;25.626;2022-12-20T14:53:20;28.80;;;17.57;;
11604;SDS011;5858;43.076;25.626;2022-12-20T14:55:51;33.70;;;18.60;;
11604;SDS011;5858;43.076;25.626;2022-12-20T14:58:22;32.87;;;18.80;;
11604;SDS011;5858;43.076;25.626;2022-12-20T15:00:55;39.97;;;20.87;;
11604;SDS011;5858;43.076;25.626;2022-12-20T15:03:25;37.47;;;19.17;;
11604;SDS011;5858;43.076;25.626;2022-12-20T15:05:54;35.13;;;18.67;;
11604;SDS011;5858;43.076;25.626;2022-12-20T15:08:25;36.43;;;19.30;;
11604;SDS011;5858;43.076;25.626;2022-12-20T15:10:54;35.07;;;18.10;;
11604;SDS011;5858;43.076;25.626;2022-12-20T15:13:29;36.37;;;18.70;;
11604;SDS011;5858;43.076;25.626;2022-12-20T15:16:01;37.87;;;19.13;;
11604;SDS011;5858;43.076;25.626;2022-12-20T15:18:39;35.70;;;18.10;;
11604;SDS011;5858;43.076;25.626;2022-12-20T15:21:09;40.17;;;21.03;;
11604;SDS011;5858;43.076;25.626;2022-12-20T15:23:44;37.10;;;18.97;;
11604;SDS011;5858;43.076;25.626;2022-12-20T15:26:14;40.67;;;20.03;;
11604;SDS011;5858;43.076;25.626;2022-12-20T15:28:41;36.27;;;20.80;;